sensor_id;sensor_type;location;lat;lon;timestamp;pressure;altitude;pressure_sealevel;temperature;humidity
46886;BME280;32622;48.202;11.326;2023-07-29T13:09:36;1014.83;;;10.41;75.13
46886;BME280;32622;48.202;11.326;2023-07-29T13:11:38;1013.41;;;17.58;65.75
46886;BME280;32622;48.202;11.326;2023-07-29T13:13:40;1013.23;;;18.19;61.55
46886;BME280;32622;48.202;11.326;2023-07-29T13:15:42;1013.22;;;18.68;57.35
46886;BME280;32622;48.202;11.326;2023-07-29T13:17:44;1012.84;;;19.64;55.23
46886;BME280;32622;48.202;11.326;2023-07-29T13:19:47;1012.35;;;21.35;51.92
46886;BME280;32622;48.202;11.326;2023-07-29T13:21:49;1012.40;;;21.09;50.76
46886;BME280;32622;48.202;11.326;2023-07-29T13:23:51;1012.47;;;21.13;50.91
46886;BME280;32622;48.202;11.326;2023-07-29T13:25:53;1012.48;;;21.68;48.90
46886;BME280;32622;48.202;11.326;2023-07-29T13:27:55;1012.56;;;21.72;46.63
46886;BME280;32622;48.202;11.326;2023-07-29T13:29:58;1012.44;;;22.39;45.59
46886;BME280;32622;48.202;11.326;2023-07-29T13:32:00;1012.44;;;22.05;47.83
46886;BME280;32622;48.202;11.326;2023-07-29T13:34:02;1012.41;;;22.03;47.67
46886;BME280;32622;48.202;11.326;2023-07-29T13:36:05;1012.39;;;21.57;47.01
46886;BME280;32622;48.202;11.326;2023-07-29T13:38:07;1012.26;;;21.96;45.58
46886;BME280;32622;48.202;11.326;2023-07-29T13:40:10;1012.11;;;22.78;45.09
46886;BME280;32622;48.202;11.326;2023-07-29T13:42:12;1012.01;;;23.51;43.63
46886;BME280;32622;48.202;11.326;2023-07-29T13:44:14;1011.96;;;23.84;43.21
46886;BME280;32622;48.202;11.326;2023-07-29T13:46:16;1012.17;;;22.42;44.65
46886;BME280;32622;48.202;11.326;2023-07-29T13:48:18;1011.98;;;23.43;43.93
46886;BME280;32622;48.202;11.326;2023-07-29T13:50:20;1011.97;;;23.30;43.03
46886;BME280;32622;48.202;11.326;2023-07-29T13:52:22;1012.02;;;23.28;42.31
46886;BME280;32622;48.202;11.326;2023-07-29T13:54:24;1012.16;;;22.57;43.11
46886;BME280;32622;48.202;11.326;2023-07-29T13:56:27;1012.08;;;23.02;42.18
46886;BME280;32622;48.202;11.326;2023-07-29T13:58:29;1011.79;;;24.23;41.64
46886;BME280;32622;48.202;11.326;2023-07-29T14:00:31;1011.92;;;23.28;41.28
46886;BME280;32622;48.202;11.326;2023-07-29T14:02:33;1011.72;;;23.93;41.54
46886;BME280;32622;48.202;11.326;2023-07-29T14:04:35;1011.47;;;23.98;40.72
46886;BME280;32622;48.202;11.326;2023-07-29T14:06:37;1011.42;;;24.33;41.10
46886;BME280;32622;48.202;11.326;2023-07-29T14:08:39;1011.42;;;24.90;40.68
46886;BME280;32622;48.202;11.326;2023-07-29T14:10:42;1011.62;;;24.03;40.26
46886;BME280;32622;48.202;11.326;2023-07-29T14:12:44;1011.63;;;24.14;40.61
46886;BME280;32622;48.202;11.326;2023-07-29T14:14:46;1011.60;;;24.53;40.28
46886;BME280;32622;48.202;11.326;2023-07-29T14:16:48;1011.63;;;24.51;39.67
46886;BME280;32622;48.202;11.326;2023-07-29T14:18:50;1011.64;;;24.80;38.76
46886;BME280;32622;48.202;11.326;2023-07-29T14:20:52;1011.77;;;24.61;38.64
46886;BME280;32622;48.202;11.326;2023-07-29T14:22:54;1012.02;;;24.05;38.93
46886;BME280;32622;48.202;11.326;2023-07-29T14:24:56;1012.39;;;23.42;39.02
46886;BME280;32622;48.202;11.326;2023-07-29T14:26:58;1012.36;;;24.05;38.94
46886;BME280;32622;48.202;11.326;2023-07-29T14:29:01;1012.21;;;23.98;39.30
46886;BME280;32622;48.202;11.326;2023-07-29T14:31:03;1012.15;;;23.27;38.08
46886;BME280;32622;48.202;11.326;2023-07-29T14:33:05;1012.09;;;23.47;38.45
46886;BME280;32622;48.202;11.326;2023-07-29T14:35:08;1012.15;;;23.24;37.90
46886;BME280;32622;48.202;11.326;2023-07-29T14:37:10;1012.12;;;23.08;37.59
46886;BME280;32622;48.202;11.326;2023-07-29T14:39:12;1012.06;;;23.45;37.40
46886;BME280;32622;48.202;11.326;2023-07-29T14:41:14;1012.14;;;23.22;37.47
46886;BME280;32622;48.202;11.326;2023-07-29T14:43:16;1012.20;;;23.20;37.59
46886;BME280;32622;48.202;11.326;2023-07-29T14:45:19;1012.20;;;22.59;37.44
46886;BME280;32622;48.202;11.326;2023-07-29T14:47:21;1012.28;;;22.40;38.20
46886;BME280;32622;48.202;11.326;2023-07-29T14:49:23;1012.60;;;21.03;40.89
46886;BME280;32622;48.202;11.326;2023-07-29T14:51:25;1012.33;;;21.17;40.52
46886;BME280;32622;48.202;11.326;2023-07-29T14:53:27;1012.02;;;21.98;39.58
46886;BME280;32622;48.202;11.326;2023-07-29T14:55:29;1012.11;;;21.64;38.54
46886;BME280;32622;48.202;11.326;2023-07-29T14:57:31;1012.27;;;21.76;38.50
46886;BME280;32622;48.202;11.326;2023-07-29T14:59:33;1012.33;;;21.96;37.62
46886;BME280;32622;48.202;11.326;2023-07-29T15:01:35;1012.41;;;21.23;38.36
46886;BME280;32622;48.202;11.326;2023-07-29T15:03:37;1012.34;;;21.83;37.88
46886;BME280;32622;48.202;11.326;2023-07-29T15:05:40;1012.40;;;21.60;37.72
46886;BME280;32622;48.202;11.326;2023-07-29T15:07:42;1012.56;;;21.16;38.81
46886;BME280;32622;48.202;11.326;2023-07-29T15:09:44;1012.41;;;21.49;37.94
46886;BME280;32622;48.202;11.326;2023-07-29T15:11:46;1012.80;;;20.02;39.70
46886;BME280;32622;48.202;11.326;2023-07-29T15:13:48;1012.57;;;21.14;38.94
46886;BME280;32622;48.202;11.326;2023-07-29T15:15:50;1012.48;;;21.70;39.26
46886;BME280;32622;48.202;11.326;2023-07-29T15:17:53;1012.51;;;21.48;38.64
46886;BME280;32622;48.202;11.326;2023-07-29T15:19:55;1012.38;;;22.08;38.45
46886;BME280;32622;48.202;11.326;2023-07-29T15:21:57;1012.45;;;21.51;39.19
46886;BME280;32622;48.202;11.326;2023-07-29T15:24:00;1012.45;;;21.63;38.59
46886;BME280;32622;48.202;11.326;2023-07-29T15:26:02;1012.40;;;21.74;38.93
46886;BME280;32622;48.202;11.326;2023-07-29T15:28:04;1012.55;;;21.26;39.90
46886;BME280;32622;48.202;11.326;2023-07-29T15:30:07;1012.28;;;22.03;39.66
46886;BME280;32622;48.202;11.326;2023-07-29T15:32:09;1012.49;;;21.92;38.78
46886;BME280;32622;48.202;11.326;2023-07-29T15:34:11;1012.50;;;21.97;38.82
46886;BME280;32622;48.202;11.326;2023-07-29T15:36:13;1012.54;;;21.99;39.12
46886;BME280;32622;48.202;11.326;2023-07-29T15:38:15;1012.52;;;21.99;39.38
46886;BME280;32622;48.202;11.326;2023-07-29T15:40:18;1012.55;;;21.92;39.07
46886;BME280;32622;48.202;11.326;2023-07-29T15:42:20;1012.48;;;22.37;38.86
46886;BME280;32622;48.202;11.326;2023-07-29T15:44:22;1012.46;;;22.45;38.76
46886;BME280;32622;48.202;11.326;2023-07-29T15:46:24;1012.49;;;22.53;37.86
46886;BME280;32622;48.202;11.326;2023-07-29T15:48:26;1012.46;;;22.59;37.76
46886;BME280;32622;48.202;11.326;2023-07-29T15:50:28;1012.42;;;22.63;38.91
46886;BME280;32622;48.202;11.326;2023-07-29T15:52:30;1012.50;;;22.41;38.99
46886;BME280;32622;48.202;11.326;2023-07-29T15:54:32;1012.54;;;22.59;38.33
46886;BME280;32622;48.202;11.326;2023-07-29T15:56:35;1012.54;;;22.26;37.80
46886;BME280;32622;48.202;11.326;2023-07-29T15:58:37;1012.65;;;21.58;37.95
46886;BME280;32622;48.202;11.326;2023-07-29T16:00:39;1012.65;;;21.66;39.29
46886;BME280;32622;48.202;11.326;2023-07-29T16:02:41;1012.44;;;22.60;38.86
46886;BME280;32622;48.202;11.326;2023-07-29T16:04:44;1012.55;;;21.80;38.44
46886;BME280;32622;48.202;11.326;2023-07-29T16:06:46;1012.53;;;21.65;38.24
46886;BME280;32622;48.202;11.326;2023-07-29T16:08:48;1012.47;;;21.58;38.84
46886;BME280;32622;48.202;11.326;2023-07-29T16:10:50;1012.48;;;21.98;39.86
46886;BME280;32622;48.202;11.326;2023-07-29T16:12:52;1012.47;;;22.09;39.77
46886;BME280;32622;48.202;11.326;2023-07-29T16:14:54;1012.41;;;22.05;37.52
46886;BME280;32622;48.202;11.326;2023-07-29T16:16:57;1012.34;;;22.73;38.30
46886;BME280;32622;48.202;11.326;2023-07-29T16:18:59;1012.34;;;23.05;38.14
46886;BME280;32622;48.202;11.326;2023-07-29T16:21:01;1012.47;;;22.49;38.55
46886;BME280;32622;48.202;11.326;2023-07-29T16:23:03;1012.60;;;21.66;39.25
46886;BME280;32622;48.202;11.326;2023-07-29T16:25:06;1012.33;;;22.84;38.82
46886;BME280;32622;48.202;11.326;2023-07-29T16:27:08;1012.42;;;22.19;39.63
46886;BME280;32622;48.202;11.326;2023-07-29T16:29:10;1012.41;;;22.25;39.55
46886;BME280;32622;48.202;11.326;2023-07-29T16:31:12;1012.39;;;22.59;38.69
46886;BME280;32622;48.202;11.326;2023-07-29T16:33:14;1012.39;;;22.62;38.56
46886;BME280;32622;48.202;11.326;2023-07-29T16:35:16;1012.39;;;22.72;39.10
46886;BME280;32622;48.202;11.326;2023-07-29T16:37:18;1012.31;;;23.11;39.36
46886;BME280;32622;48.202;11.326;2023-07-29T16:39:21;1012.20;;;23.72;39.02
46886;BME280;32622;48.202;11.326;2023-07-29T16:41:23;1012.26;;;23.59;38.50
46886;BME280;32622;48.202;11.326;2023-07-29T16:43:25;1012.32;;;23.61;38.79
46886;BME280;32622;48.202;11.326;2023-07-29T16:45:27;1012.46;;;23.01;39.02
46886;BME280;32622;48.202;11.326;2023-07-29T16:47:29;1012.39;;;23.24;39.23
46886;BME280;32622;48.202;11.326;2023-07-29T16:49:31;1012.36;;;23.44;39.28
46886;BME280;32622;48.202;11.326;2023-07-29T16:51:33;1012.42;;;23.25;39.45
46886;BME280;32622;48.202;11.326;2023-07-29T16:53:36;1012.40;;;23.30;39.68
46886;BME280;32622;48.202;11.326;2023-07-29T16:55:38;1012.27;;;23.86;39.51
46886;BME280;32622;48.202;11.326;2023-07-29T16:57:40;1012.46;;;23.05;39.81
46886;BME280;32622;48.202;11.326;2023-07-29T16:59:42;1012.20;;;24.22;39.16
46886;BME280;32622;48.202;11.326;2023-07-29T17:01:44;1012.34;;;23.92;39.20
46886;BME280;32622;48.202;11.326;2023-07-29T17:03:46;1012.44;;;24.03;38.98
46886;BME280;32622;48.202;11.326;2023-07-29T17:05:48;1012.69;;;23.13;40.40
46886;BME280;32622;48.202;11.326;2023-07-29T17:07:50;1012.72;;;23.10;39.88
46886;BME280;32622;48.202;11.326;2023-07-29T17:09:52;1012.78;;;22.95;41.21
46886;BME280;32622;48.202;11.326;2023-07-29T17:11:55;1012.95;;;22.18;41.46
46886;BME280;32622;48.202;11.326;2023-07-29T17:13:57;1012.92;;;22.06;41.97
46886;BME280;32622;48.202;11.326;2023-07-29T17:15:59;1012.84;;;22.22;41.84
46886;BME280;32622;48.202;11.326;2023-07-29T17:18:01;1012.83;;;22.38;41.34
46886;BME280;32622;48.202;11.326;2023-07-29T17:20:04;1012.81;;;22.76;41.12
46886;BME280;32622;48.202;11.326;2023-07-29T17:22:06;1012.86;;;22.55;40.71
46886;BME280;32622;48.202;11.326;2023-07-29T17:24:08;1012.77;;;23.04;40.27
46886;BME280;32622;48.202;11.326;2023-07-29T17:26:10;1012.99;;;22.21;41.86
46886;BME280;32622;48.202;11.326;2023-07-29T17:28:13;1012.94;;;22.72;41.35
46886;BME280;32622;48.202;11.326;2023-07-29T17:30:15;1013.03;;;22.69;40.86
46886;BME280;32622;48.202;11.326;2023-07-29T17:32:17;1013.08;;;22.69;41.01
46886;BME280;32622;48.202;11.326;2023-07-29T17:34:19;1013.12;;;22.95;40.78
46886;BME280;32622;48.202;11.326;2023-07-29T17:36:21;1013.19;;;23.00;40.28
46886;BME280;32622;48.202;11.326;2023-07-29T17:38:23;1013.25;;;22.80;40.16
46886;BME280;32622;48.202;11.326;2023-07-29T17:40:25;1013.22;;;22.71;40.00
46886;BME280;32622;48.202;11.326;2023-07-29T17:42:27;1013.13;;;23.08;39.94
46886;BME280;32622;48.202;11.326;2023-07-29T17:44:29;1013.44;;;21.68;41.05
46886;BME280;32622;48.202;11.326;2023-07-29T17:46:32;1013.26;;;21.65;40.72
46886;BME280;32622;48.202;11.326;2023-07-29T17:48:34;1013.06;;;22.60;39.55
46886;BME280;32622;48.202;11.326;2023-07-29T17:50:36;1013.08;;;22.58;39.82
46886;BME280;32622;48.202;11.326;2023-07-29T17:52:38;1013.05;;;22.61;40.00
46886;BME280;32622;48.202;11.326;2023-07-29T17:54:40;1013.01;;;22.80;39.86
46886;BME280;32622;48.202;11.326;2023-07-29T17:56:42;1012.92;;;22.97;39.94
46886;BME280;32622;48.202;11.326;2023-07-29T17:58:45;1012.98;;;22.52;39.46
46886;BME280;32622;48.202;11.326;2023-07-29T18:00:48;1012.97;;;22.94;38.97
46886;BME280;32622;48.202;11.326;2023-07-29T18:02:50;1013.18;;;22.08;39.37
46886;BME280;32622;48.202;11.326;2023-07-29T18:04:54;1013.06;;;22.76;39.21
46886;BME280;32622;48.202;11.326;2023-07-29T18:06:56;1013.08;;;22.66;39.64
46886;BME280;32622;48.202;11.326;2023-07-29T18:08:58;1013.09;;;22.92;39.91
46886;BME280;32622;48.202;11.326;2023-07-29T18:11:01;1013.11;;;22.49;39.35
46886;BME280;32622;48.202;11.326;2023-07-29T18:13:03;1013.03;;;22.81;39.70
46886;BME280;32622;48.202;11.326;2023-07-29T18:15:06;1013.07;;;22.66;39.14
46886;BME280;32622;48.202;11.326;2023-07-29T18:17:08;1013.08;;;22.70;38.84
46886;BME280;32622;48.202;11.326;2023-07-29T18:19:11;1013.02;;;22.92;38.72
46886;BME280;32622;48.202;11.326;2023-07-29T18:21:13;1013.03;;;22.99;38.53
46886;BME280;32622;48.202;11.326;2023-07-29T18:23:15;1013.10;;;22.51;38.42
46886;BME280;32622;48.202;11.326;2023-07-29T18:25:17;1013.15;;;22.33;39.19
46886;BME280;32622;48.202;11.326;2023-07-29T18:27:20;1013.08;;;22.62;38.97
46886;BME280;32622;48.202;11.326;2023-07-29T18:29:22;1013.07;;;22.70;39.07
46886;BME280;32622;48.202;11.326;2023-07-29T18:31:24;1013.02;;;23.36;38.56
46886;BME280;32622;48.202;11.326;2023-07-29T18:33:26;1013.18;;;22.51;38.46
46886;BME280;32622;48.202;11.326;2023-07-29T18:35:28;1013.00;;;22.78;38.08
46886;BME280;32622;48.202;11.326;2023-07-29T18:37:30;1012.99;;;22.73;38.32
46886;BME280;32622;48.202;11.326;2023-07-29T18:39:32;1013.01;;;22.86;38.33
46886;BME280;32622;48.202;11.326;2023-07-29T18:41:34;1012.94;;;23.24;38.60
46886;BME280;32622;48.202;11.326;2023-07-29T18:43:36;1013.06;;;22.52;38.50
46886;BME280;32622;48.202;11.326;2023-07-29T18:45:39;1012.92;;;23.17;38.20
46886;BME280;32622;48.202;11.326;2023-07-29T18:47:41;1013.00;;;22.85;37.95
46886;BME280;32622;48.202;11.326;2023-07-29T18:49:43;1013.10;;;22.35;38.03
46886;BME280;32622;48.202;11.326;2023-07-29T18:51:45;1013.01;;;22.81;37.99
46886;BME280;32622;48.202;11.326;2023-07-29T18:53:47;1012.93;;;23.15;38.09
46886;BME280;32622;48.202;11.326;2023-07-29T18:55:49;1012.93;;;23.02;38.39
46886;BME280;32622;48.202;11.326;2023-07-29T18:57:51;1012.94;;;22.99;38.39
46886;BME280;32622;48.202;11.326;2023-07-29T18:59:53;1013.02;;;22.61;38.22
46886;BME280;32622;48.202;11.326;2023-07-29T19:01:55;1013.09;;;22.38;38.41
46886;BME280;32622;48.202;11.326;2023-07-29T19:03:57;1013.22;;;21.86;38.57
46886;BME280;32622;48.202;11.326;2023-07-29T19:06:00;1013.06;;;22.61;38.19
46886;BME280;32622;48.202;11.326;2023-07-29T19:08:02;1013.14;;;22.39;38.92
46886;BME280;32622;48.202;11.326;2023-07-29T19:10:06;1013.06;;;23.10;38.45
46886;BME280;32622;48.202;11.326;2023-07-29T19:12:08;1013.11;;;22.77;38.42
46886;BME280;32622;48.202;11.326;2023-07-29T19:14:10;1013.30;;;21.84;38.33
46886;BME280;32622;48.202;11.326;2023-07-29T19:16:12;1013.23;;;22.31;38.04
46886;BME280;32622;48.202;11.326;2023-07-29T19:18:15;1013.27;;;22.02;37.87
46886;BME280;32622;48.202;11.326;2023-07-29T19:20:17;1013.60;;;20.67;39.33
46886;BME280;32622;48.202;11.326;2023-07-29T19:22:19;1013.27;;;22.19;37.83
46886;BME280;32622;48.202;11.326;2023-07-29T19:24:21;1013.21;;;22.29;37.33
46886;BME280;32622;48.202;11.326;2023-07-29T19:26:23;1013.42;;;21.28;37.69
46886;BME280;32622;48.202;11.326;2023-07-29T19:28:25;1013.47;;;20.95;38.62
46886;BME280;32622;48.202;11.326;2023-07-29T19:30:27;1013.40;;;21.30;38.10
46886;BME280;32622;48.202;11.326;2023-07-29T19:32:29;1013.29;;;21.75;37.91
46886;BME280;32622;48.202;11.326;2023-07-29T19:34:31;1013.31;;;21.70;37.73
46886;BME280;32622;48.202;11.326;2023-07-29T19:36:34;1013.37;;;21.57;37.36
46886;BME280;32622;48.202;11.326;2023-07-29T19:38:36;1013.48;;;21.16;37.51
46886;BME280;32622;48.202;11.326;2023-07-29T19:40:38;1013.40;;;21.55;37.69
46886;BME280;32622;48.202;11.326;2023-07-29T19:42:40;1013.44;;;21.31;37.10
46886;BME280;32622;48.202;11.326;2023-07-29T19:44:42;1013.42;;;21.42;37.19
46886;BME280;32622;48.202;11.326;2023-07-29T19:46:44;1013.44;;;21.29;37.57
46886;BME280;32622;48.202;11.326;2023-07-29T19:48:47;1013.39;;;21.67;36.98
46886;BME280;32622;48.202;11.326;2023-07-29T19:50:49;1013.42;;;21.40;37.16
46886;BME280;32622;48.202;11.326;2023-07-29T19:52:51;1013.31;;;21.79;36.90
46886;BME280;32622;48.202;11.326;2023-07-29T19:54:53;1013.50;;;20.70;38.23
46886;BME280;32622;48.202;11.326;2023-07-29T19:56:55;1013.37;;;21.23;37.71
46886;BME280;32622;48.202;11.326;2023-07-29T19:58:57;1013.51;;;20.52;38.15
46886;BME280;32622;48.202;11.326;2023-07-29T20:01:00;1013.48;;;20.51;37.88
46886;BME280;32622;48.202;11.326;2023-07-29T20:03:02;1013.40;;;20.97;37.94
46886;BME280;32622;48.202;11.326;2023-07-29T20:05:04;1013.34;;;21.26;37.66
46886;BME280;32622;48.202;11.326;2023-07-29T20:07:07;1013.37;;;21.07;37.68
46886;BME280;32622;48.202;11.326;2023-07-29T20:09:09;1013.44;;;20.85;37.85
46886;BME280;32622;48.202;11.326;2023-07-29T20:11:11;1013.23;;;21.79;37.83
46886;BME280;32622;48.202;11.326;2023-07-29T20:13:13;1013.37;;;21.08;37.60
46886;BME280;32622;48.202;11.326;2023-07-29T20:15:15;1013.29;;;21.66;37.16
46886;BME280;32622;48.202;11.326;2023-07-29T20:17:17;1013.29;;;21.53;37.41
46886;BME280;32622;48.202;11.326;2023-07-29T20:19:19;1013.34;;;21.38;37.17
46886;BME280;32622;48.202;11.326;2023-07-29T20:21:22;1013.29;;;21.40;37.36
46886;BME280;32622;48.202;11.326;2023-07-29T20:23:24;1013.24;;;21.56;36.98
46886;BME280;32622;48.202;11.326;2023-07-29T20:25:26;1013.16;;;21.96;36.52
46886;BME280;32622;48.202;11.326;2023-07-29T20:27:28;1013.17;;;21.79;36.82
46886;BME280;32622;48.202;11.326;2023-07-29T20:29:30;1013.25;;;21.54;37.09
46886;BME280;32622;48.202;11.326;2023-07-29T20:31:32;1013.35;;;21.44;37.03
46886;BME280;32622;48.202;11.326;2023-07-29T20:33:34;1013.28;;;21.79;36.94
46886;BME280;32622;48.202;11.326;2023-07-29T20:35:36;1013.23;;;22.07;36.58
46886;BME280;32622;48.202;11.326;2023-07-29T20:37:39;1013.31;;;21.60;37.37
46886;BME280;32622;48.202;11.326;2023-07-29T20:39:41;1013.34;;;21.45;37.15
46886;BME280;32622;48.202;11.326;2023-07-29T20:41:43;1013.28;;;21.76;37.20
46886;BME280;32622;48.202;11.326;2023-07-29T20:43:45;1013.25;;;21.98;36.98
46886;BME280;32622;48.202;11.326;2023-07-29T20:45:48;1013.27;;;21.85;37.32
46886;BME280;32622;48.202;11.326;2023-07-29T20:47:50;1013.30;;;21.68;37.26
46886;BME280;32622;48.202;11.326;2023-07-29T20:49:52;1013.25;;;21.91;36.91
46886;BME280;32622;48.202;11.326;2023-07-29T20:51:54;1013.33;;;21.61;37.61
46886;BME280;32622;48.202;11.326;2023-07-29T20:53:56;1013.39;;;21.41;37.59
46886;BME280;32622;48.202;11.326;2023-07-29T20:55:58;1013.36;;;21.60;37.52
46886;BME280;32622;48.202;11.326;2023-07-29T20:58:01;1013.34;;;21.79;37.29
46886;BME280;32622;48.202;11.326;2023-07-29T21:00:04;1013.49;;;21.05;37.88
46886;BME280;32622;48.202;11.326;2023-07-29T21:02:07;1013.44;;;21.65;37.68
46886;BME280;32622;48.202;11.326;2023-07-29T21:04:09;1013.56;;;21.37;37.49
46886;BME280;32622;48.202;11.326;2023-07-29T21:06:12;1013.55;;;21.75;37.18
46886;BME280;32622;48.202;11.326;2023-07-29T21:08:14;1013.50;;;22.10;36.94
46886;BME280;32622;48.202;11.326;2023-07-29T21:10:16;1013.48;;;21.99;37.05
46886;BME280;32622;48.202;11.326;2023-07-29T21:12:18;1013.48;;;21.81;37.14
46886;BME280;32622;48.202;11.326;2023-07-29T21:14:20;1013.53;;;21.31;37.20
46886;BME280;32622;48.202;11.326;2023-07-29T21:16:23;1013.45;;;21.68;36.40
46886;BME280;32622;48.202;11.326;2023-07-29T21:18:25;1013.46;;;21.42;37.27
46886;BME280;32622;48.202;11.326;2023-07-29T21:20:27;1013.43;;;21.45;36.80
46886;BME280;32622;48.202;11.326;2023-07-29T21:22:29;1013.48;;;20.99;37.87
46886;BME280;32622;48.202;11.326;2023-07-29T21:24:31;1013.32;;;21.61;37.17
46886;BME280;32622;48.202;11.326;2023-07-29T21:26:33;1013.45;;;20.95;37.26
46886;BME280;32622;48.202;11.326;2023-07-29T21:28:35;1013.43;;;20.91;37.30
46886;BME280;32622;48.202;11.326;2023-07-29T21:30:38;1013.31;;;21.32;37.21
46886;BME280;32622;48.202;11.326;2023-07-29T21:32:40;1013.40;;;20.79;37.01
46886;BME280;32622;48.202;11.326;2023-07-29T21:34:42;1013.47;;;20.46;37.04
46886;BME280;32622;48.202;11.326;2023-07-29T21:36:44;1013.33;;;21.16;36.39
46886;BME280;32622;48.202;11.326;2023-07-29T21:38:46;1013.47;;;20.74;37.09
46886;BME280;32622;48.202;11.326;2023-07-29T21:40:48;1013.46;;;21.01;37.18
46886;BME280;32622;48.202;11.326;2023-07-29T21:42:51;1013.45;;;21.09;36.79
46886;BME280;32622;48.202;11.326;2023-07-29T21:44:53;1013.50;;;20.92;36.71
46886;BME280;32622;48.202;11.326;2023-07-29T21:46:55;1013.63;;;20.37;37.21
46886;BME280;32622;48.202;11.326;2023-07-29T21:48:57;1013.57;;;20.77;36.84
46886;BME280;32622;48.202;11.326;2023-07-29T21:50:59;1013.50;;;21.06;36.78
46886;BME280;32622;48.202;11.326;2023-07-29T21:53:02;1013.54;;;20.84;37.22
46886;BME280;32622;48.202;11.326;2023-07-29T21:55:05;1013.42;;;21.56;36.77
46886;BME280;32622;48.202;11.326;2023-07-29T21:57:07;1013.62;;;20.87;37.82
46886;BME280;32622;48.202;11.326;2023-07-29T21:59:09;1013.78;;;20.39;38.13
46886;BME280;32622;48.202;11.326;2023-07-29T22:01:11;1013.87;;;19.88;37.92
46886;BME280;32622;48.202;11.326;2023-07-29T22:03:13;1013.96;;;19.58;38.45
46886;BME280;32622;48.202;11.326;2023-07-29T22:05:15;1013.82;;;20.14;37.78
46886;BME280;32622;48.202;11.326;2023-07-29T22:07:18;1013.72;;;20.53;37.35
46886;BME280;32622;48.202;11.326;2023-07-29T22:09:20;1013.88;;;19.97;38.13
46886;BME280;32622;48.202;11.326;2023-07-29T22:11:22;1013.77;;;20.41;37.95
46886;BME280;32622;48.202;11.326;2023-07-29T22:13:24;1013.75;;;20.59;37.66
46886;BME280;32622;48.202;11.326;2023-07-29T22:15:26;1013.70;;;20.71;37.31
46886;BME280;32622;48.202;11.326;2023-07-29T22:17:28;1013.68;;;20.65;37.20
46886;BME280;32622;48.202;11.326;2023-07-29T22:19:30;1013.69;;;20.48;36.85
46886;BME280;32622;48.202;11.326;2023-07-29T22:21:32;1013.64;;;20.47;36.88
46886;BME280;32622;48.202;11.326;2023-07-29T22:23:34;1013.52;;;20.90;36.51
46886;BME280;32622;48.202;11.326;2023-07-29T22:25:36;1013.64;;;20.03;36.82
46886;BME280;32622;48.202;11.326;2023-07-29T22:27:38;1013.47;;;20.73;36.87
46886;BME280;32622;48.202;11.326;2023-07-29T22:29:40;1013.34;;;21.05;36.57
46886;BME280;32622;48.202;11.326;2023-07-29T22:31:43;1013.39;;;20.56;36.31
46886;BME280;32622;48.202;11.326;2023-07-29T22:33:45;1013.33;;;20.96;36.03
46886;BME280;32622;48.202;11.326;2023-07-29T22:35:47;1013.36;;;20.92;36.17
46886;BME280;32622;48.202;11.326;2023-07-29T22:37:49;1013.44;;;20.52;36.40
46886;BME280;32622;48.202;11.326;2023-07-29T22:39:51;1013.49;;;20.16;36.55
46886;BME280;32622;48.202;11.326;2023-07-29T22:41:54;1013.40;;;20.70;36.25
46886;BME280;32622;48.202;11.326;2023-07-29T22:43:56;1013.39;;;20.91;35.91
46886;BME280;32622;48.202;11.326;2023-07-29T22:45:59;1013.49;;;20.57;35.84
46886;BME280;32622;48.202;11.326;2023-07-29T22:48:02;1013.54;;;20.26;36.25
46886;BME280;32622;48.202;11.326;2023-07-29T22:50:05;1013.39;;;20.91;35.71
46886;BME280;32622;48.202;11.326;2023-07-29T22:52:07;1013.41;;;20.97;35.90
46886;BME280;32622;48.202;11.326;2023-07-29T22:54:09;1013.38;;;21.01;35.49
46886;BME280;32622;48.202;11.326;2023-07-29T22:56:11;1013.24;;;21.63;35.63
46886;BME280;32622;48.202;11.326;2023-07-29T22:58:13;1013.47;;;20.60;36.03
46886;BME280;32622;48.202;11.326;2023-07-29T23:00:16;1013.36;;;21.23;36.05
46886;BME280;32622;48.202;11.326;2023-07-29T23:02:18;1013.40;;;20.68;35.77
46886;BME280;32622;48.202;11.326;2023-07-29T23:04:20;1013.33;;;20.74;35.59
46886;BME280;32622;48.202;11.326;2023-07-29T23:06:22;1013.20;;;21.10;35.70
46886;BME280;32622;48.202;11.326;2023-07-29T23:08:24;1013.39;;;20.41;36.07
46886;BME280;32622;48.202;11.326;2023-07-29T23:10:26;1013.25;;;21.35;35.32
46886;BME280;32622;48.202;11.326;2023-07-29T23:12:28;1013.25;;;21.25;35.25
46886;BME280;32622;48.202;11.326;2023-07-29T23:14:30;1013.17;;;21.62;35.34
46886;BME280;32622;48.202;11.326;2023-07-29T23:16:32;1013.23;;;21.24;35.79
46886;BME280;32622;48.202;11.326;2023-07-29T23:18:35;1013.18;;;21.47;35.75
46886;BME280;32622;48.202;11.326;2023-07-29T23:20:37;1013.22;;;21.23;35.47
46886;BME280;32622;48.202;11.326;2023-07-29T23:22:39;1013.18;;;21.43;35.55
46886;BME280;32622;48.202;11.326;2023-07-29T23:24:41;1013.17;;;21.53;35.91
46886;BME280;32622;48.202;11.326;2023-07-29T23:26:43;1013.16;;;21.46;35.67
46886;BME280;32622;48.202;11.326;2023-07-29T23:28:45;1013.07;;;21.71;35.20
46886;BME280;32622;48.202;11.326;2023-07-29T23:30:47;1013.05;;;21.70;35.34
46886;BME280;32622;48.202;11.326;2023-07-29T23:32:49;1013.11;;;21.28;35.38
46886;BME280;32622;48.202;11.326;2023-07-29T23:34:52;1013.01;;;21.65;35.41
46886;BME280;32622;48.202;11.326;2023-07-29T23:36:54;1013.00;;;21.55;35.19
46886;BME280;32622;48.202;11.326;2023-07-29T23:38:56;1012.92;;;21.94;35.11
46886;BME280;32622;48.202;11.326;2023-07-29T23:40:58;1012.97;;;21.55;34.94
46886;BME280;32622;48.202;11.326;2023-07-29T23:43:00;1013.10;;;21.14;35.43
46886;BME280;32622;48.202;11.326;2023-07-29T23:45:03;1013.04;;;21.40;35.18
46886;BME280;32622;48.202;11.326;2023-07-29T23:47:05;1013.09;;;21.19;35.81
46886;BME280;32622;48.202;11.326;2023-07-29T23:49:08;1013.04;;;21.40;36.27
46886;BME280;32622;48.202;11.326;2023-07-29T23:51:10;1013.10;;;21.23;36.14
46886;BME280;32622;48.202;11.326;2023-07-29T23:53:12;1013.06;;;21.35;36.04
46886;BME280;32622;48.202;11.326;2023-07-29T23:55:14;1013.05;;;21.39;35.50